Time;durP1;ratioP1;P1;durP2;ratioP2;P2;SDS_P1;SDS_P2;PMS_P1;PMS_P2;Temp;Humidity;BMP_temperature;BMP_pressure;BME280_temperature;BME280_humidity;BME280_pressure;Samples;Min_cycle;Max_cycle;Signal;HPM_P1;HPM_P2
2022/01/04 00:01:40;;;;;;;;;;;10.30;96.00;;;;;;5023473;28;19909;-77
2022/01/04 00:04:06;;;;;;;;;;;10.30;96.00;;;;;;5026146;28;19920;-77
2022/01/04 00:06:32;;;;;;;;;;;10.20;96.00;;;;;;5020461;28;19916;-77
2022/01/04 00:09:01;;;;;;;;;;;10.20;96.00;;;;;;5020199;28;19918;-77
2022/01/04 00:14:11;;;;;;;;;;;10.20;96.00;;;;;;5020337;28;19916;-77
2022/01/04 00:16:37;;;;;;;;;;;10.20;96.00;;;;;;5020342;28;19909;-77
2022/01/04 00:19:03;;;;;;;;;;;10.20;96.00;;;;;;5019750;28;19910;-78
2022/01/04 00:21:29;;;;;;;;;;;10.20;96.00;;;;;;5020377;28;20284;-78
2022/01/04 00:23:54;;;;;;;;;;;10.20;96.00;;;;;;5019704;28;19951;-77
2022/01/04 00:26:20;;;;;;;;;;;10.20;96.00;;;;;;5019960;28;19916;-77
2022/01/04 00:28:45;;;;;;;;;;;10.20;95.90;;;;;;5019870;28;20015;-77
2022/01/04 00:31:11;;;;;;;;;;;10.10;95.90;;;;;;5019901;28;19960;-77
2022/01/04 00:33:37;;;;;;;;;;;10.20;95.90;;;;;;5031026;28;19909;-78
2022/01/04 00:36:03;;;;;;;;;;;10.10;95.90;;;;;;5020106;28;19909;-78
2022/01/04 00:38:29;;;;;;;;;;;10.10;95.90;;;;;;5019654;28;20384;-78
2022/01/04 00:40:55;;;;;;;;;;;10.10;95.90;;;;;;5019758;28;19933;-77
2022/01/04 00:43:21;;;;;;;;;;;10.10;95.90;;;;;;5019675;28;19909;-77
2022/01/04 00:45:46;;;;;;;;;;;10.10;95.90;;;;;;5019932;28;19914;-77
2022/01/04 00:50:38;;;;;;;;;;;10.10;95.90;;;;;;5019963;28;19995;-77
2022/01/04 00:53:05;;;;;;;;;;;10.10;95.90;;;;;;5019296;28;20327;-77
2022/01/04 00:55:30;;;;;;;;;;;10.10;96.00;;;;;;5009938;28;20009;-77
2022/01/04 00:57:57;;;;;;;;;;;10.00;96.00;;;;;;5016026;28;19941;-77
2022/01/04 01:00:23;;;;;;;;;;;10.00;96.00;;;;;;5019514;28;19940;-77
2022/01/04 01:02:49;;;;;;;;;;;10.00;95.90;;;;;;5027692;28;19916;-77
2022/01/04 01:05:15;;;;;;;;;;;10.00;95.90;;;;;;5019380;28;19917;-77
2022/01/04 01:07:41;;;;;;;;;;;10.00;95.90;;;;;;5019146;28;19909;-77
2022/01/04 01:12:53;;;;;;;;;;;10.00;96.00;;;;;;5006073;28;19959;-77
2022/01/04 01:15:19;;;;;;;;;;;9.90;95.90;;;;;;5019267;28;20365;-77
2022/01/04 01:17:45;;;;;;;;;;;9.90;95.90;;;;;;5018980;28;19910;-77
2022/01/04 01:20:13;;;;;;;;;;;9.90;95.90;;;;;;5019115;28;19909;-77
2022/01/04 01:22:39;;;;;;;;;;;9.90;96.00;;;;;;5019022;28;20320;-77
2022/01/04 01:25:05;;;;;;;;;;;9.90;96.00;;;;;;5018589;28;19921;-77
2022/01/04 01:27:31;;;;;;;;;;;9.90;95.90;;;;;;5018984;28;19980;-77
2022/01/04 01:29:56;;;;;;;;;;;9.90;96.00;;;;;;5018884;28;19910;-77
2022/01/04 01:32:22;;;;;;;;;;;9.90;96.10;;;;;;5024127;28;20312;-77
2022/01/04 01:34:48;;;;;;;;;;;9.90;96.10;;;;;;5024091;28;19909;-77
2022/01/04 01:37:13;;;;;;;;;;;9.90;96.00;;;;;;5018807;28;20377;-76
2022/01/04 01:39:39;;;;;;;;;;;9.80;96.00;;;;;;5018618;28;19910;-76
2022/01/04 01:42:05;;;;;;;;;;;9.90;96.10;;;;;;5018703;28;20254;-77
2022/01/04 01:44:31;;;;;;;;;;;9.80;96.00;;;;;;5018779;28;19909;-77
2022/01/04 01:46:57;;;;;;;;;;;9.80;96.00;;;;;;5025854;28;20016;-78
2022/01/04 01:49:23;;;;;;;;;;;9.80;96.00;;;;;;5023763;28;19941;-78
2022/01/04 01:51:49;;;;;;;;;;;9.80;96.00;;;;;;5018687;28;19917;-78
2022/01/04 01:54:15;;;;;;;;;;;9.80;96.00;;;;;;5018520;28;19955;-78
2022/01/04 01:56:40;;;;;;;;;;;9.80;96.00;;;;;;5005286;28;19913;-78
2022/01/04 01:59:06;;;;;;;;;;;9.80;96.00;;;;;;5017152;28;19935;-78
2022/01/04 02:01:32;;;;;;;;;;;9.80;96.00;;;;;;5020141;28;19928;-78
2022/01/04 02:03:58;;;;;;;;;;;9.80;96.00;;;;;;5025216;28;20372;-78
2022/01/04 02:06:24;;;;;;;;;;;9.80;95.90;;;;;;5018308;28;19917;-78
2022/01/04 02:08:50;;;;;;;;;;;9.80;95.90;;;;;;5018257;28;19913;-78
2022/01/04 02:11:17;;;;;;;;;;;9.80;96.00;;;;;;5018245;28;20005;-78
2022/01/04 02:13:42;;;;;;;;;;;9.80;96.10;;;;;;5018321;28;20004;-78
2022/01/04 02:16:09;;;;;;;;;;;9.80;96.20;;;;;;5018393;28;19949;-78
2022/01/04 02:18:35;;;;;;;;;;;9.80;96.30;;;;;;5016842;28;19909;-78
2022/01/04 02:21:00;;;;;;;;;;;9.80;96.40;;;;;;5018357;28;19916;-78
2022/01/04 02:23:26;;;;;;;;;;;9.80;96.50;;;;;;5016874;28;20284;-78
2022/01/04 02:25:52;;;;;;;;;;;9.80;96.50;;;;;;5017956;28;19916;-78
2022/01/04 02:28:20;;;;;;;;;;;9.80;96.60;;;;;;5018054;28;19918;-78
2022/01/04 02:30:47;;;;;;;;;;;9.80;96.70;;;;;;5018157;28;20021;-78
2022/01/04 02:33:14;;;;;;;;;;;9.80;96.60;;;;;;5029166;28;20059;-78
2022/01/04 02:35:39;;;;;;;;;;;9.80;96.50;;;;;;5018428;28;19915;-78
2022/01/04 02:38:05;;;;;;;;;;;9.80;96.40;;;;;;5017885;28;19910;-78
2022/01/04 02:40:31;;;;;;;;;;;9.80;96.40;;;;;;5018018;28;19909;-78
2022/01/04 02:42:57;;;;;;;;;;;9.80;96.40;;;;;;5017971;28;19914;-78
2022/01/04 02:45:23;;;;;;;;;;;9.80;96.60;;;;;;5018052;28;20349;-78
2022/01/04 02:47:49;;;;;;;;;;;9.80;96.60;;;;;;5033138;28;19913;-78
2022/01/04 02:50:14;;;;;;;;;;;9.80;96.70;;;;;;5022107;28;19910;-78
2022/01/04 02:52:40;;;;;;;;;;;9.80;96.90;;;;;;5021723;28;19910;-78
2022/01/04 02:55:07;;;;;;;;;;;9.80;96.90;;;;;;5015400;28;19910;-78
2022/01/04 02:57:33;;;;;;;;;;;9.80;96.90;;;;;;5014125;28;20051;-78
2022/01/04 02:59:59;;;;;;;;;;;9.80;97.00;;;;;;5020524;28;20380;-77
2022/01/04 03:02:25;;;;;;;;;;;9.70;96.90;;;;;;5030449;28;19910;-78
2022/01/04 03:04:51;;;;;;;;;;;9.70;97.00;;;;;;5021602;28;19910;-78
2022/01/04 03:07:16;;;;;;;;;;;9.70;97.00;;;;;;5021522;28;20331;-78
2022/01/04 03:09:42;;;;;;;;;;;9.70;97.00;;;;;;5021452;28;19921;-78
2022/01/04 03:12:08;;;;;;;;;;;9.70;97.40;;;;;;5021591;28;19913;-78
2022/01/04 03:14:34;;;;;;;;;;;9.70;97.10;;;;;;5008581;28;19953;-78
2022/01/04 03:17:00;;;;;;;;;;;9.70;97.30;;;;;;5021152;28;19913;-78
2022/01/04 03:19:26;;;;;;;;;;;9.70;97.30;;;;;;5020106;28;19916;-78
2022/01/04 03:21:51;;;;;;;;;;;9.70;97.30;;;;;;5021322;28;19910;-78
2022/01/04 03:24:17;;;;;;;;;;;9.70;97.40;;;;;;5020334;28;19922;-78
2022/01/04 03:26:43;;;;;;;;;;;9.70;97.30;;;;;;5019702;28;19916;-78
2022/01/04 03:29:09;;;;;;;;;;;9.70;97.30;;;;;;5019991;28;19914;-78
2022/01/04 03:31:35;;;;;;;;;;;9.60;97.30;;;;;;5019687;28;19909;-78
2022/01/04 03:34:01;;;;;;;;;;;9.60;97.20;;;;;;5032163;28;19969;-78
2022/01/04 03:36:27;;;;;;;;;;;9.60;97.30;;;;;;5020023;28;20411;-78
2022/01/04 03:38:53;;;;;;;;;;;9.60;97.50;;;;;;5019778;28;20380;-78
2022/01/04 03:41:20;;;;;;;;;;;9.60;97.50;;;;;;5019799;28;20396;-78
2022/01/04 03:43:46;;;;;;;;;;;9.60;97.40;;;;;;5018453;28;19909;-78
2022/01/04 03:46:12;;;;;;;;;;;9.60;97.30;;;;;;5018818;28;19916;-78
2022/01/04 03:48:37;;;;;;;;;;;9.60;97.30;;;;;;5019434;28;19914;-78
2022/01/04 03:51:03;;;;;;;;;;;9.60;97.40;;;;;;5019775;28;20376;-78
2022/01/04 03:53:29;;;;;;;;;;;9.60;97.40;;;;;;5018842;28;19916;-78
2022/01/04 03:55:55;;;;;;;;;;;9.60;97.50;;;;;;5006726;28;19910;-78
2022/01/04 03:58:21;;;;;;;;;;;9.50;97.50;;;;;;5018015;28;19956;-78
2022/01/04 04:00:47;;;;;;;;;;;9.60;97.60;;;;;;5019766;28;19977;-78
2022/01/04 04:03:12;;;;;;;;;;;9.60;97.70;;;;;;5028123;28;19909;-78
2022/01/04 04:05:38;;;;;;;;;;;9.60;97.80;;;;;;5019448;28;20004;-78
2022/01/04 04:08:04;;;;;;;;;;;9.60;97.90;;;;;;5019316;28;20008;-78
2022/01/04 04:10:30;;;;;;;;;;;9.50;97.80;;;;;;5019256;28;19916;-78
2022/01/04 04:12:55;;;;;;;;;;;9.50;97.80;;;;;;5019324;28;19909;-78
2022/01/04 04:15:21;;;;;;;;;;;9.50;97.90;;;;;;5019457;28;19960;-78
2022/01/04 04:17:47;;;;;;;;;;;9.50;97.90;;;;;;5019042;28;19910;-78
2022/01/04 04:20:12;;;;;;;;;;;9.50;97.90;;;;;;5019253;28;19980;-78
2022/01/04 04:22:38;;;;;;;;;;;9.50;98.00;;;;;;5017874;28;19988;-78
2022/01/04 04:25:04;;;;;;;;;;;9.50;97.90;;;;;;4949997;28;1988923;-78
2022/01/04 04:27:30;;;;;;;;;;;9.50;98.00;;;;;;5018804;28;19914;-78
2022/01/04 04:29:56;;;;;;;;;;;9.50;98.00;;;;;;5020038;28;19920;-78
2022/01/04 04:32:21;;;;;;;;;;;9.50;98.00;;;;;;5023973;28;19909;-78
2022/01/04 04:34:47;;;;;;;;;;;9.50;98.00;;;;;;5025643;28;20008;-78
2022/01/04 04:37:12;;;;;;;;;;;9.50;98.00;;;;;;5020108;28;19916;-78
2022/01/04 04:39:38;;;;;;;;;;;9.40;97.90;;;;;;5018387;28;19917;-78
2022/01/04 04:42:04;;;;;;;;;;;9.40;97.90;;;;;;5019889;28;19916;-78
2022/01/04 04:44:30;;;;;;;;;;;9.40;97.90;;;;;;5019902;28;19916;-78
2022/01/04 04:46:56;;;;;;;;;;;9.40;97.70;;;;;;5026628;28;19913;-78
2022/01/04 04:49:21;;;;;;;;;;;9.40;97.50;;;;;;5005181;28;19913;-78
2022/01/04 04:51:47;;;;;;;;;;;9.40;97.60;;;;;;5019734;28;20337;-78
2022/01/04 04:54:13;;;;;;;;;;;9.40;97.50;;;;;;5018036;28;20284;-78
2022/01/04 04:56:39;;;;;;;;;;;9.30;97.50;;;;;;5006346;28;19971;-78
2022/01/04 04:59:05;;;;;;;;;;;9.30;97.60;;;;;;5019532;28;19909;-78
2022/01/04 05:01:31;;;;;;;;;;;9.30;97.90;;;;;;5021181;28;19909;-78
2022/01/04 05:03:57;;;;;;;;;;;9.30;97.70;;;;;;5026082;28;19920;-78
2022/01/04 05:06:23;;;;;;;;;;;9.30;97.60;;;;;;5019262;28;20000;-78
2022/01/04 05:08:48;;;;;;;;;;;9.30;97.60;;;;;;5018549;28;19920;-78
2022/01/04 05:11:14;;;;;;;;;;;9.40;97.80;;;;;;5018998;28;19910;-78
2022/01/04 05:13:40;;;;;;;;;;;9.30;97.70;;;;;;5019275;28;20328;-78
2022/01/04 05:16:06;;;;;;;;;;;9.30;97.80;;;;;;5019127;28;19939;-78
2022/01/04 05:18:31;;;;;;;;;;;9.40;97.90;;;;;;5018792;28;20008;-78
2022/01/04 05:20:57;;;;;;;;;;;9.30;98.00;;;;;;5019447;28;19949;-78
2022/01/04 05:23:22;;;;;;;;;;;9.40;98.40;;;;;;5018864;28;19940;-78
2022/01/04 05:25:48;;;;;;;;;;;9.30;98.10;;;;;;5019012;28;20021;-78
2022/01/04 05:28:14;;;;;;;;;;;9.30;98.10;;;;;;5018852;28;19913;-78
2022/01/04 05:30:39;;;;;;;;;;;9.30;98.20;;;;;;5018953;28;19918;-78
2022/01/04 05:33:05;;;;;;;;;;;9.30;98.20;;;;;;5030042;28;19917;-78
2022/01/04 05:35:31;;;;;;;;;;;9.30;98.20;;;;;;5019081;28;20000;-78
2022/01/04 05:37:56;;;;;;;;;;;9.30;98.10;;;;;;5018952;28;19920;-78
2022/01/04 05:40:22;;;;;;;;;;;9.30;98.20;;;;;;5018774;28;19916;-78
2022/01/04 05:42:48;;;;;;;;;;;9.30;98.20;;;;;;5018606;28;19913;-78
2022/01/04 05:45:13;;;;;;;;;;;9.30;98.20;;;;;;5018859;28;19932;-78
2022/01/04 05:47:39;;;;;;;;;;;9.30;98.10;;;;;;5030627;28;19975;-78
2022/01/04 05:50:08;;;;;;;;;;;9.30;98.00;;;;;;5018855;28;19910;-78
2022/01/04 05:52:34;;;;;;;;;;;9.30;98.00;;;;;;5018377;28;20327;-78
2022/01/04 05:55:00;;;;;;;;;;;9.30;98.00;;;;;;5013034;28;19997;-78
2022/01/04 05:57:26;;;;;;;;;;;9.30;98.00;;;;;;5010767;28;19917;-81
2022/01/04 05:59:51;;;;;;;;;;;9.30;98.20;;;;;;5016976;28;19909;-75
2022/01/04 06:02:17;;;;;;;;;;;9.40;98.30;;;;;;5025930;28;20368;-73
2022/01/04 06:04:43;;;;;;;;;;;9.40;98.40;;;;;;5023313;28;19909;-73
2022/01/04 06:07:09;;;;;;;;;;;9.40;98.40;;;;;;5024609;28;20288;-73
2022/01/04 06:09:43;;;;;;;;;;;9.40;98.50;;;;;;5017999;28;19914;-75
2022/01/04 06:14:50;;;;;;;;;;;9.40;98.60;;;;;;5018183;28;19952;-77
2022/01/04 06:14:57;;;;;;;;;;;9.50;98.80;;;;;;5018151;28;19917;-77
2022/01/04 06:17:30;;;;;;;;;;;9.50;98.80;;;;;;5017852;28;20372;-76
2022/01/04 06:19:58;;;;;;;;;;;9.50;98.80;;;;;;5018280;28;19917;-76
2022/01/04 06:22:24;;;;;;;;;;;9.50;98.90;;;;;;5017996;28;19959;-72
2022/01/04 06:24:50;;;;;;;;;;;9.50;98.80;;;;;;5017769;28;19921;-78
2022/01/04 06:27:16;;;;;;;;;;;9.50;98.90;;;;;;5017905;28;19975;-76
2022/01/04 06:29:42;;;;;;;;;;;9.40;98.80;;;;;;5018199;28;19913;-78
2022/01/04 06:32:09;;;;;;;;;;;9.40;98.80;;;;;;5020305;28;19910;-77
2022/01/04 06:34:35;;;;;;;;;;;9.40;98.90;;;;;;5026060;28;19941;-75
2022/01/04 06:37:00;;;;;;;;;;;9.40;98.90;;;;;;5017836;28;19909;-75
2022/01/04 06:39:26;;;;;;;;;;;9.40;99.00;;;;;;5018024;28;19920;-86
2022/01/04 06:41:52;;;;;;;;;;;9.40;98.90;;;;;;5017904;28;19910;-83
2022/01/04 06:44:18;;;;;;;;;;;9.40;99.00;;;;;;5018160;28;20364;-77
2022/01/04 06:46:46;;;;;;;;;;;9.40;99.10;;;;;;5022828;28;19909;-79
2022/01/04 06:49:13;;;;;;;;;;;9.40;99.00;;;;;;5023321;28;19914;-78
2022/01/04 06:51:39;;;;;;;;;;;9.40;99.00;;;;;;5017812;28;19909;-77
2022/01/04 06:54:06;;;;;;;;;;;9.40;99.00;;;;;;5016564;28;19917;-78
2022/01/04 06:56:31;;;;;;;;;;;9.30;99.00;;;;;;5002092;28;20005;-78
2022/01/04 06:58:57;;;;;;;;;;;9.40;99.00;;;;;;5017523;28;19960;-78
2022/01/04 07:01:23;;;;;;;;;;;9.40;99.10;;;;;;5016881;28;20499;-78
2022/01/04 07:03:48;;;;;;;;;;;9.40;99.20;;;;;;5025433;28;19910;-78
2022/01/04 07:06:14;;;;;;;;;;;9.40;99.10;;;;;;5017623;28;19909;-78
2022/01/04 07:08:40;;;;;;;;;;;9.30;99.00;;;;;;5017587;28;20299;-78
2022/01/04 07:11:05;;;;;;;;;;;9.30;99.10;;;;;;5017740;28;19933;-78
2022/01/04 07:13:31;;;;;;;;;;;9.30;99.10;;;;;;5017747;28;19933;-78
2022/01/04 07:15:57;;;;;;;;;;;9.30;99.10;;;;;;5016437;28;19913;-78
2022/01/04 07:18:22;;;;;;;;;;;9.30;99.10;;;;;;5017274;28;19973;-78
2022/01/04 07:20:48;;;;;;;;;;;9.30;99.10;;;;;;5017333;28;19917;-78
2022/01/04 07:23:14;;;;;;;;;;;9.30;99.10;;;;;;5017921;28;19910;-78
2022/01/04 07:25:39;;;;;;;;;;;9.30;99.10;;;;;;5017084;28;19918;-78
2022/01/04 07:28:05;;;;;;;;;;;9.30;99.10;;;;;;5017415;28;20384;-78
2022/01/04 07:30:31;;;;;;;;;;;9.30;99.10;;;;;;5015913;28;19913;-78
2022/01/04 07:32:56;;;;;;;;;;;9.30;99.20;;;;;;5029156;28;19913;-78
2022/01/04 07:35:22;;;;;;;;;;;9.30;99.20;;;;;;5022004;28;19909;-78
2022/01/04 07:37:48;;;;;;;;;;;9.30;99.30;;;;;;5021038;28;20380;-78
2022/01/04 07:40:13;;;;;;;;;;;9.30;99.30;;;;;;5020709;28;19916;-78
2022/01/04 07:42:39;;;;;;;;;;;9.30;99.30;;;;;;5020917;28;19909;-78
2022/01/04 07:45:05;;;;;;;;;;;9.30;99.30;;;;;;5020730;28;19996;-78
2022/01/04 07:47:31;;;;;;;;;;;9.30;99.20;;;;;;5032347;28;19917;-78
2022/01/04 07:49:56;;;;;;;;;;;9.30;99.30;;;;;;5020451;28;19918;-78
2022/01/04 07:52:22;;;;;;;;;;;9.30;99.30;;;;;;5020953;28;19917;-78
2022/01/04 07:54:48;;;;;;;;;;;9.30;99.30;;;;;;5016470;28;19981;-78
2022/01/04 07:57:13;;;;;;;;;;;9.30;99.30;;;;;;5011509;28;20389;-77
2022/01/04 07:59:39;;;;;;;;;;;9.30;99.30;;;;;;5020529;28;19909;-78
2022/01/04 08:02:05;;;;;;;;;;;9.20;99.30;;;;;;5026578;28;19916;-78
2022/01/04 08:04:31;;;;;;;;;;;9.20;99.30;;;;;;5021542;28;19917;-78
2022/01/04 08:06:56;;;;;;;;;;;9.20;99.30;;;;;;5020607;28;19913;-77
2022/01/04 08:09:22;;;;;;;;;;;9.20;99.30;;;;;;5020167;28;19914;-77
2022/01/04 08:11:47;;;;;;;;;;;9.20;99.30;;;;;;5020462;28;20369;-77
2022/01/04 08:14:14;;;;;;;;;;;9.20;99.30;;;;;;5020212;28;20352;-78
2022/01/04 08:16:39;;;;;;;;;;;9.10;99.30;;;;;;5018777;28;20292;-78
2022/01/04 08:19:05;;;;;;;;;;;9.10;99.40;;;;;;5020149;28;19910;-77
2022/01/04 08:21:31;;;;;;;;;;;9.10;99.40;;;;;;5020357;28;19915;-77
2022/01/04 08:23:56;;;;;;;;;;;9.10;99.50;;;;;;5019870;28;19925;-78
2022/01/04 08:26:22;;;;;;;;;;;9.10;99.50;;;;;;5020100;28;19909;-77
2022/01/04 08:28:48;;;;;;;;;;;9.00;99.40;;;;;;5019884;28;19913;-77
2022/01/04 08:31:13;;;;;;;;;;;9.10;99.40;;;;;;5019918;28;20420;-78
2022/01/04 08:33:39;;;;;;;;;;;9.10;99.40;;;;;;5031489;28;19932;-77
2022/01/04 08:36:07;;;;;;;;;;;9.10;99.40;;;;;;5020134;28;19917;-77
2022/01/04 08:38:33;;;;;;;;;;;9.10;99.30;;;;;;5019767;28;19910;-77
2022/01/04 08:40:58;;;;;;;;;;;9.10;99.30;;;;;;5020062;28;19916;-78
2022/01/04 08:43:26;;;;;;;;;;;9.10;99.30;;;;;;5019235;28;19910;-77
2022/01/04 08:45:52;;;;;;;;;;;9.10;99.30;;;;;;5017937;28;20309;-78
2022/01/04 08:48:17;;;;;;;;;;;9.10;99.20;;;;;;5032019;28;20036;-77
2022/01/04 08:50:44;;;;;;;;;;;9.10;99.20;;;;;;5019813;28;19963;-77
2022/01/04 08:53:11;;;;;;;;;;;9.20;99.30;;;;;;5019455;28;19991;-77
2022/01/04 08:55:38;;;;;;;;;;;9.20;99.30;;;;;;5009053;28;20152;-78
2022/01/04 08:58:04;;;;;;;;;;;9.20;99.30;;;;;;5016938;28;19909;-77
2022/01/04 09:00:29;;;;;;;;;;;9.30;99.60;;;;;;5018216;28;19956;-77
2022/01/04 09:02:55;;;;;;;;;;;9.30;99.30;;;;;;5027168;28;19909;-78
2022/01/04 09:05:20;;;;;;;;;;;9.40;99.40;;;;;;5019585;28;19917;-78
2022/01/04 09:07:46;;;;;;;;;;;9.40;99.30;;;;;;5019221;28;19909;-77
2022/01/04 09:10:12;;;;;;;;;;;9.40;99.30;;;;;;5019329;28;19914;-78
2022/01/04 09:12:54;;;;;;;;;;;9.50;99.30;;;;;;5019019;28;19922;-77
2022/01/04 09:20:39;;;;;;;;;;;9.50;99.20;;;;;;5019170;28;19932;-78
2022/01/04 09:23:05;;;;;;;;;;;9.60;99.10;;;;;;5019353;28;20365;-77
2022/01/04 09:25:30;;;;;;;;;;;9.60;99.00;;;;;;5018680;28;19921;-77
2022/01/04 09:27:56;;;;;;;;;;;9.60;98.90;;;;;;5019010;28;19936;-77
2022/01/04 09:30:23;;;;;;;;;;;9.60;98.80;;;;;;5018813;28;20292;-77
2022/01/04 09:32:48;;;;;;;;;;;9.70;98.70;;;;;;5028066;28;19909;-77
2022/01/04 09:35:14;;;;;;;;;;;9.70;98.60;;;;;;5021873;28;19910;-77
2022/01/04 09:37:40;;;;;;;;;;;9.60;98.50;;;;;;5018829;28;19910;-77
2022/01/04 09:40:06;;;;;;;;;;;9.70;98.50;;;;;;5018589;28;20304;-77
2022/01/04 09:42:32;;;;;;;;;;;9.70;98.40;;;;;;5018840;28;20392;-77
2022/01/04 09:44:57;;;;;;;;;;;9.70;98.30;;;;;;5018614;28;20081;-77
2022/01/04 09:47:23;;;;;;;;;;;9.70;98.10;;;;;;5019018;28;19933;-77
2022/01/04 09:49:49;;;;;;;;;;;9.70;98.10;;;;;;5017331;28;19948;-77
2022/01/04 09:52:19;;;;;;;;;;;9.70;98.00;;;;;;5018989;28;20308;-77
2022/01/04 09:54:45;;;;;;;;;;;9.70;98.00;;;;;;5014679;28;20357;-77
2022/01/04 09:57:14;;;;;;;;;;;9.70;98.00;;;;;;5023860;28;19916;-77
2022/01/04 09:59:40;;;;;;;;;;;9.70;98.00;;;;;;5018341;28;19916;-77
2022/01/04 10:02:18;;;;;;;;;;;9.70;97.90;;;;;;5024439;28;19909;-77
2022/01/04 10:04:44;;;;;;;;;;;9.70;97.90;;;;;;5017636;28;19909;-77
2022/01/04 10:07:10;;;;;;;;;;;9.80;97.90;;;;;;5018589;28;19910;-77
2022/01/04 10:09:35;;;;;;;;;;;9.80;97.90;;;;;;5018080;28;20454;-77
2022/01/04 10:12:01;;;;;;;;;;;9.80;97.90;;;;;;5017134;28;19956;-77
2022/01/04 10:14:31;;;;;;;;;;;9.80;97.90;;;;;;5018231;28;20295;-77
2022/01/04 10:16:58;;;;;;;;;;;9.80;97.90;;;;;;5017015;28;19913;-77
2022/01/04 10:19:28;;;;;;;;;;;9.90;97.90;;;;;;5018311;28;19910;-77
2022/01/04 10:22:27;;;;;;;;;;;9.90;97.90;;;;;;5018152;28;19909;-77
2022/01/04 10:25:02;;;;;;;;;;;9.90;98.10;;;;;;5009976;28;19925;-78
2022/01/04 10:27:32;;;;;;;;;;;10.00;97.80;;;;;;5006088;28;19909;-77
2022/01/04 10:30:07;;;;;;;;;;;9.90;97.70;;;;;;5018106;28;20372;-77
2022/01/04 10:32:46;;;;;;;;;;;10.00;97.60;;;;;;5023828;28;20007;-77
2022/01/04 10:35:23;;;;;;;;;;;10.00;97.50;;;;;;5020015;28;20380;-77
2022/01/04 10:37:48;;;;;;;;;;;10.10;97.50;;;;;;5018030;28;19963;-77
2022/01/04 10:40:14;;;;;;;;;;;10.10;97.50;;;;;;5016645;28;19959;-77
2022/01/04 10:42:39;;;;;;;;;;;10.10;97.40;;;;;;5017871;28;20005;-77
2022/01/04 10:45:25;;;;;;;;;;;10.10;97.30;;;;;;5017790;28;19910;-77
2022/01/04 10:47:51;;;;;;;;;;;10.20;97.20;;;;;;5029940;28;19910;-78
2022/01/04 10:50:30;;;;;;;;;;;10.20;97.20;;;;;;5017960;28;19920;-77
2022/01/04 10:52:57;;;;;;;;;;;10.20;97.10;;;;;;5017658;28;20397;-77
2022/01/04 10:55:22;;;;;;;;;;;10.20;97.10;;;;;;5009414;28;20361;-77
2022/01/04 10:57:48;;;;;;;;;;;10.30;97.00;;;;;;5013204;28;20046;-77
2022/01/04 11:00:14;;;;;;;;;;;10.30;97.00;;;;;;5017887;28;19909;-77
2022/01/04 11:02:39;;;;;;;;;;;10.30;96.90;;;;;;5026055;28;19910;-77
2022/01/04 11:05:15;;;;;;;;;;;10.30;97.00;;;;;;5018163;28;19910;-77
2022/01/04 11:07:57;;;;;;;;;;;10.30;96.90;;;;;;5017817;28;19914;-78
2022/01/04 11:10:23;;;;;;;;;;;10.30;96.60;;;;;;5021633;28;19917;-77
2022/01/04 11:12:49;;;;;;;;;;;10.30;96.40;;;;;;5021351;28;20422;-77
2022/01/04 11:15:15;;;;;;;;;;;10.30;96.40;;;;;;5021689;28;19910;-77
2022/01/04 11:17:40;;;;;;;;;;;10.40;96.40;;;;;;5021009;28;19910;-77
2022/01/04 11:20:06;;;;;;;;;;;10.40;96.50;;;;;;5021601;28;19909;-77
2022/01/04 11:22:33;;;;;;;;;;;10.30;96.40;;;;;;5021292;28;19910;-77
2022/01/04 11:25:01;;;;;;;;;;;10.40;96.30;;;;;;5021338;28;19922;-77
2022/01/04 11:27:28;;;;;;;;;;;10.40;96.20;;;;;;5008328;28;19909;-77
2022/01/04 11:29:58;;;;;;;;;;;10.40;95.80;;;;;;5019861;28;19964;-77
2022/01/04 11:32:25;;;;;;;;;;;10.40;95.50;;;;;;5026730;28;19909;-77
2022/01/04 11:35:03;;;;;;;;;;;10.40;95.00;;;;;;5026658;28;19910;-77
2022/01/04 11:37:28;;;;;;;;;;;10.40;94.00;;;;;;5021188;28;19963;-77
2022/01/04 11:39:56;;;;;;;;;;;10.40;92.80;;;;;;5020872;28;20008;-77
2022/01/04 11:42:30;;;;;;;;;;;10.40;91.20;;;;;;5020953;28;19933;-77
2022/01/04 11:44:56;;;;;;;;;;;10.40;92.00;;;;;;5020840;28;20369;-77
2022/01/04 11:47:30;;;;;;;;;;;10.60;92.40;;;;;;5031461;28;19932;-78
2022/01/04 11:50:10;;;;;;;;;;;10.90;91.10;;;;;;5021812;28;19919;-78
2022/01/04 11:52:37;;;;;;;;;;;11.30;90.40;;;;;;5020643;28;19910;-77
2022/01/04 11:55:26;;;;;;;;;;;11.50;88.50;;;;;;5014753;28;19917;-77
2022/01/04 11:57:57;;;;;;;;;;;11.40;85.90;;;;;;5016075;28;19910;-77
2022/01/04 12:00:23;;;;;;;;;;;11.40;84.90;;;;;;5020691;28;20328;-77
2022/01/04 12:03:01;;;;;;;;;;;11.30;85.50;;;;;;5027758;28;19992;-77
2022/01/04 12:05:27;;;;;;;;;;;11.30;87.40;;;;;;5020775;28;20360;-77
2022/01/04 12:07:53;;;;;;;;;;;11.60;84.00;;;;;;5020307;28;19945;-77
2022/01/04 12:10:22;;;;;;;;;;;12.20;82.90;;;;;;5020568;28;19909;-77
2022/01/04 12:13:09;;;;;;;;;;;12.70;83.10;;;;;;5020197;28;19913;-78
2022/01/04 12:15:35;;;;;;;;;;;13.10;78.10;;;;;;5020269;28;19909;-77
2022/01/04 12:18:07;;;;;;;;;;;13.50;75.90;;;;;;5018620;28;20031;-77
2022/01/04 12:20:42;;;;;;;;;;;13.90;78.60;;;;;;5018836;28;19975;-78
2022/01/04 12:23:25;;;;;;;;;;;14.20;78.80;;;;;;5020331;28;20388;-78
2022/01/04 12:26:06;;;;;;;;;;;14.50;77.00;;;;;;5012605;28;19929;-77
2022/01/04 12:28:39;;;;;;;;;;;14.80;75.30;;;;;;5019894;28;19913;-78
2022/01/04 12:31:17;;;;;;;;;;;15.00;71.20;;;;;;5019925;28;19910;-77
2022/01/04 12:33:48;;;;;;;;;;;15.10;73.60;;;;;;5031617;28;20407;-78
2022/01/04 12:36:25;;;;;;;;;;;14.70;72.60;;;;;;5020031;28;19910;-78
2022/01/04 12:38:52;;;;;;;;;;;14.30;70.60;;;;;;5007930;28;19934;-77
2022/01/04 12:41:17;;;;;;;;;;;13.90;72.30;;;;;;5019769;28;20308;-77
2022/01/04 12:43:46;;;;;;;;;;;13.60;75.00;;;;;;5019874;28;19916;-77
2022/01/04 12:46:13;;;;;;;;;;;13.10;72.20;;;;;;5020597;28;19916;-77
2022/01/04 12:48:45;;;;;;;;;;;12.80;73.60;;;;;;5031244;28;19920;-77
2022/01/04 12:51:26;;;;;;;;;;;12.50;72.50;;;;;;5019593;28;19964;-77
2022/01/04 12:53:59;;;;;;;;;;;12.20;74.60;;;;;;5019462;28;19910;-77
2022/01/04 12:56:25;;;;;;;;;;;12.10;76.30;;;;;;5006220;28;20372;-77
2022/01/04 12:58:51;;;;;;;;;;;11.90;76.00;;;;;;5019640;28;19909;-77
2022/01/04 13:01:27;;;;;;;;;;;11.80;78.00;;;;;;5017843;28;19920;-77
2022/01/04 13:03:53;;;;;;;;;;;11.70;78.00;;;;;;5012102;28;20388;-77
2022/01/04 13:06:18;;;;;;;;;;;11.60;78.60;;;;;;5019274;28;19921;-76
2022/01/04 13:08:51;;;;;;;;;;;11.40;76.80;;;;;;5018172;28;19920;-76
2022/01/04 13:11:17;;;;;;;;;;;11.30;78.10;;;;;;5021629;28;19964;-77
2022/01/04 13:13:43;;;;;;;;;;;11.30;80.10;;;;;;5019361;28;19953;-77
2022/01/04 13:16:19;;;;;;;;;;;11.60;81.00;;;;;;5019189;28;20438;-77
2022/01/04 13:18:45;;;;;;;;;;;11.80;80.60;;;;;;5019096;28;19960;-76
2022/01/04 13:21:11;;;;;;;;;;;12.10;78.40;;;;;;5019543;28;19910;-76
2022/01/04 13:23:40;;;;;;;;;;;12.30;78.00;;;;;;5019039;28;19934;-77
2022/01/04 13:26:06;;;;;;;;;;;12.50;78.90;;;;;;5018960;28;19921;-77
2022/01/04 13:28:33;;;;;;;;;;;12.40;75.80;;;;;;5018921;28;19973;-77
2022/01/04 13:30:59;;;;;;;;;;;12.40;76.20;;;;;;5018363;28;19955;-77
2022/01/04 13:33:24;;;;;;;;;;;12.30;74.60;;;;;;5030170;28;20000;-77
2022/01/04 13:35:50;;;;;;;;;;;12.10;75.10;;;;;;5018971;28;19909;-77
2022/01/04 13:38:19;;;;;;;;;;;11.90;77.00;;;;;;5017574;28;19924;-77
2022/01/04 13:40:45;;;;;;;;;;;11.90;78.20;;;;;;5018952;28;19910;-77
2022/01/04 13:43:12;;;;;;;;;;;11.70;76.80;;;;;;5018821;28;20004;-77
2022/01/04 13:45:42;;;;;;;;;;;11.60;77.20;;;;;;5018832;28;19967;-77
2022/01/04 13:48:07;;;;;;;;;;;11.50;76.30;;;;;;5031131;28;19913;-77
2022/01/04 13:50:33;;;;;;;;;;;11.50;78.30;;;;;;5018932;28;19960;-76
2022/01/04 13:53:00;;;;;;;;;;;11.40;78.30;;;;;;5018477;28;19932;-78
2022/01/04 13:55:41;;;;;;;;;;;11.30;76.70;;;;;;5009466;28;19917;-77
2022/01/04 13:58:08;;;;;;;;;;;11.30;77.30;;;;;;5016504;28;19910;-77
2022/01/04 14:00:34;;;;;;;;;;;11.20;77.70;;;;;;5018520;28;19910;-77
2022/01/04 14:03:01;;;;;;;;;;;11.00;75.50;;;;;;5026637;28;19916;-77
2022/01/04 14:05:34;;;;;;;;;;;10.90;77.20;;;;;;5018345;28;20387;-76
2022/01/04 14:07:59;;;;;;;;;;;10.90;78.00;;;;;;5018205;28;19916;-76
2022/01/04 14:10:44;;;;;;;;;;;10.80;79.30;;;;;;5016948;28;19952;-77
2022/01/04 14:13:29;;;;;;;;;;;10.80;77.10;;;;;;5007104;28;19916;-77
2022/01/04 14:16:08;;;;;;;;;;;10.70;75.90;;;;;;5018210;28;19917;-77
2022/01/04 14:18:34;;;;;;;;;;;10.70;74.20;;;;;;5018264;28;19960;-76
2022/01/04 14:21:00;;;;;;;;;;;10.70;75.10;;;;;;5018227;28;19909;-76
2022/01/04 14:23:35;;;;;;;;;;;10.70;76.00;;;;;;5018438;28;20014;-76
2022/01/04 14:26:05;;;;;;;;;;;10.70;75.60;;;;;;5011836;28;19922;-77
2022/01/04 14:28:30;;;;;;;;;;;10.70;76.30;;;;;;5018036;28;19914;-77
2022/01/04 14:30:56;;;;;;;;;;;10.70;76.40;;;;;;5016816;28;19910;-76
2022/01/04 14:33:22;;;;;;;;;;;10.60;74.40;;;;;;5029979;28;19909;-76
2022/01/04 14:35:47;;;;;;;;;;;10.40;73.00;;;;;;5018222;28;19916;-77
2022/01/04 14:38:13;;;;;;;;;;;10.30;74.30;;;;;;5018033;28;19909;-77
2022/01/04 14:40:39;;;;;;;;;;;10.20;73.40;;;;;;5017863;28;19909;-76